createdAt,value
2019-04-14T00:00:05.483Z,5.45
2019-04-14T00:01:04.503Z,5.54
2019-04-14T00:02:05.311Z,5.45
2019-04-14T00:03:04.527Z,5.43
2019-04-14T00:04:05.262Z,5.46
2019-04-14T00:05:04.426Z,5.53
2019-04-14T00:06:04.817Z,5.56
2019-04-14T00:07:04.398Z,5.43
2019-04-14T00:08:04.658Z,5.46
2019-04-14T00:09:05.332Z,5.48
2019-04-14T00:10:05.037Z,5.43
2019-04-14T00:11:04.377Z,5.45
2019-04-14T00:12:07.355Z,5.45
2019-04-14T00:13:04.607Z,5.42
2019-04-14T00:14:05.313Z,5.42
2019-04-14T00:15:05.685Z,5.49
2019-04-14T00:16:05.429Z,5.45
2019-04-14T00:17:04.331Z,5.51
2019-04-14T00:18:05.363Z,5.48
2019-04-14T00:19:04.448Z,5.46
2019-04-14T00:20:05.376Z,5.36
2019-04-14T00:21:04.513Z,5.49
2019-04-14T00:22:05.293Z,5.43
2019-04-14T00:23:04.448Z,5.45
2019-04-14T00:24:05.207Z,5.40
2019-04-14T00:25:04.412Z,5.39
2019-04-14T00:26:05.177Z,5.33
2019-04-14T00:27:04.299Z,5.35
2019-04-14T00:28:05.219Z,5.42
2019-04-14T00:29:04.593Z,5.28
2019-04-14T00:30:05.397Z,5.31
2019-04-14T00:31:04.513Z,5.24
2019-04-14T00:32:05.175Z,5.39
2019-04-14T00:33:04.202Z,5.30
2019-04-14T00:34:05.142Z,5.31
2019-04-14T00:35:04.103Z,5.39
2019-04-14T00:36:04.471Z,5.31
2019-04-14T00:37:04.095Z,5.33
2019-04-14T00:38:04.247Z,5.35
2019-04-14T00:39:05.127Z,5.28
2019-04-14T00:40:04.096Z,5.30
2019-04-14T00:41:05.141Z,5.28
2019-04-14T00:42:05.358Z,5.25
2019-04-14T00:43:04.924Z,5.31
2019-04-14T00:44:04.007Z,5.31
2019-04-14T00:45:04.806Z,5.22
2019-04-14T00:46:04.320Z,5.27
2019-04-14T00:47:04.978Z,5.24
2019-04-14T00:48:09.794Z,5.27
2019-04-14T00:49:05.050Z,5.25
2019-04-14T00:50:03.942Z,5.28
2019-04-14T00:51:04.873Z,5.22
2019-04-14T00:52:03.984Z,5.22
2019-04-14T00:53:03.891Z,5.31
2019-04-14T00:54:04.404Z,5.22
2019-04-14T00:55:03.891Z,5.21
2019-04-14T00:56:04.117Z,5.35
2019-04-14T00:57:05.077Z,5.31
2019-04-14T00:58:03.921Z,5.33
2019-04-14T00:59:04.937Z,5.33
2019-04-14T01:00:03.938Z,5.30
2019-04-14T01:01:04.805Z,5.22
2019-04-14T01:02:03.830Z,5.24
2019-04-14T01:03:04.773Z,5.31
2019-04-14T01:04:03.775Z,5.30
2019-04-14T01:05:04.451Z,5.24
2019-04-14T01:06:03.759Z,5.30
2019-04-14T01:07:04.372Z,5.25
2019-04-14T01:08:03.741Z,5.28
2019-04-14T01:09:04.286Z,5.24
2019-04-14T01:10:04.017Z,5.21
2019-04-14T01:11:03.697Z,5.27
2019-04-14T01:12:03.930Z,5.21
2019-04-14T01:13:05.117Z,5.28
2019-04-14T01:14:03.760Z,5.22
2019-04-14T01:15:04.915Z,5.24
2019-04-14T01:16:08.876Z,5.18
2019-04-14T01:17:04.815Z,5.21
2019-04-14T01:18:03.670Z,5.20
2019-04-14T01:19:04.686Z,5.28
2019-04-14T01:20:03.744Z,5.25
2019-04-14T01:21:04.596Z,5.24
2019-04-14T01:22:03.614Z,5.22
2019-04-14T01:23:04.191Z,5.28
2019-04-14T01:24:03.561Z,5.27
2019-04-14T01:25:04.362Z,5.28
2019-04-14T01:26:03.534Z,5.24
2019-04-14T01:27:03.932Z,5.25
2019-04-14T01:28:04.563Z,5.18
2019-04-14T01:29:03.723Z,5.22
2019-04-14T01:30:04.523Z,5.17
2019-04-14T01:31:03.473Z,5.31
2019-04-14T01:32:04.539Z,5.28
2019-04-14T01:33:03.474Z,5.22
2019-04-14T01:34:04.119Z,5.15
2019-04-14T01:35:03.436Z,5.28
2019-04-14T01:36:03.942Z,5.27
2019-04-14T01:37:03.405Z,5.25
2019-04-14T01:38:03.772Z,5.25
2019-04-14T01:39:04.614Z,5.12
2019-04-14T01:40:03.421Z,5.15
2019-04-14T01:41:04.245Z,5.21
2019-04-14T01:42:03.342Z,5.15
2019-04-14T01:43:03.859Z,5.13
2019-04-14T01:44:04.566Z,5.17
2019-04-14T01:45:03.646Z,5.12
2019-04-14T01:46:12.167Z,5.10
2019-04-14T01:47:05.297Z,5.06
2019-04-14T01:48:03.883Z,5.12
2019-04-14T01:49:03.289Z,5.06
2019-04-14T01:50:03.804Z,5.07
2019-04-14T01:51:03.252Z,5.13
2019-04-14T01:52:03.616Z,5.17
2019-04-14T01:53:03.279Z,5.06
2019-04-14T01:54:03.935Z,5.09
2019-04-14T01:55:03.204Z,5.06
2019-04-14T01:56:03.493Z,5.07
2019-04-14T01:57:03.193Z,5.07
2019-04-14T01:58:03.328Z,5.02
2019-04-14T01:59:04.366Z,5.07
2019-04-14T02:00:03.320Z,5.02
2019-04-14T02:01:04.098Z,4.97
2019-04-14T02:02:03.126Z,4.99
2019-04-14T02:03:04.141Z,4.94
2019-04-14T02:04:03.132Z,4.96
2019-04-14T02:05:03.928Z,4.88
2019-04-14T02:06:03.070Z,4.99
2019-04-14T02:07:03.835Z,4.85
2019-04-14T02:08:04.391Z,4.82
2019-04-14T02:09:03.313Z,4.85
2019-04-14T02:10:03.966Z,4.82
2019-04-14T02:11:03.085Z,4.73
2019-04-14T02:12:03.824Z,4.85
2019-04-14T02:13:02.996Z,4.72
2019-04-14T02:14:03.659Z,4.72
2019-04-14T02:15:02.986Z,4.78
2019-04-14T02:16:16.504Z,4.72
2019-04-14T02:17:04.903Z,4.67
2019-04-14T02:18:03.272Z,4.77
2019-04-14T02:19:02.948Z,4.66
2019-04-14T02:20:03.332Z,4.65
2019-04-14T02:21:04.193Z,4.80
2019-04-14T02:22:02.897Z,4.62
2019-04-14T02:23:03.990Z,4.67
2019-04-14T02:24:02.911Z,4.66
2019-04-14T02:25:03.586Z,4.67
2019-04-14T02:26:02.863Z,4.69
2019-04-14T02:27:03.498Z,4.70
2019-04-14T02:28:02.829Z,4.65
2019-04-14T02:29:03.603Z,4.73
2019-04-14T02:30:03.850Z,4.73
2019-04-14T02:31:18.898Z,4.75
2019-04-14T02:33:44.741Z,4.73
2019-04-14T02:34:34.884Z,4.65
2019-04-14T02:35:45.018Z,4.60
2019-04-14T02:36:32.168Z,4.67
2019-04-14T02:38:48.983Z,4.62
2019-04-14T02:39:33.981Z,4.69
2019-04-14T02:40:36.538Z,4.65
2019-04-14T02:43:38.084Z,4.59
2019-04-14T02:44:33.631Z,4.59
2019-04-14T02:45:35.541Z,4.55
2019-04-14T02:46:34.397Z,4.52
2019-04-14T02:50:26.407Z,4.40
2019-04-14T02:51:42.493Z,4.44
2019-04-14T02:52:30.373Z,4.41
2019-04-14T02:53:36.482Z,4.41
2019-04-14T02:54:36.947Z,4.47
2019-04-14T02:55:29.776Z,4.37
2019-04-14T02:56:32.582Z,4.36
2019-04-14T02:57:30.457Z,4.37
2019-04-14T02:58:36.548Z,4.36
2019-04-14T02:59:27.071Z,4.36
2019-04-14T03:00:35.711Z,4.40
2019-04-14T03:01:34.995Z,4.32
2019-04-14T03:02:29.915Z,4.34
2019-04-14T03:03:35.579Z,4.37
2019-04-14T03:04:25.477Z,4.37
2019-04-14T03:05:26.547Z,4.27
2019-04-14T03:06:29.121Z,4.33
2019-04-14T03:07:30.382Z,4.18
2019-04-14T03:08:34.595Z,4.16
2019-04-14T03:09:38.949Z,4.20
2019-04-14T03:13:30.839Z,4.16
2019-04-14T03:14:31.014Z,4.16
2019-04-14T03:15:37.777Z,4.18
2019-04-14T03:17:30.055Z,4.15
2019-04-14T03:19:35.562Z,4.14
2019-04-14T03:21:40.488Z,4.15
2019-04-14T03:22:36.954Z,4.15
2019-04-14T03:23:38.121Z,4.22
2019-04-14T03:24:29.137Z,4.11
2019-04-14T03:25:15.251Z,4.22
2019-04-14T03:26:29.691Z,4.12
2019-04-14T03:27:32.667Z,4.11
2019-04-14T03:29:28.840Z,4.14
2019-04-14T03:31:51.872Z,4.09
2019-04-14T03:33:05.301Z,4.12
2019-04-14T03:37:27.229Z,4.20
2019-04-14T03:39:32.044Z,4.16
2019-04-14T03:40:35.675Z,4.16
2019-04-14T03:42:36.085Z,4.23
2019-04-14T03:43:30.273Z,4.23
2019-04-14T03:45:36.449Z,4.23
2019-04-14T03:47:25.603Z,4.16
2019-04-14T03:49:32.252Z,4.16
2019-04-14T03:50:30.818Z,4.18
2019-04-14T03:53:28.969Z,4.30
2019-04-14T03:54:20.196Z,4.30
2019-04-14T03:55:17.906Z,4.22
2019-04-14T03:56:07.125Z,4.22
2019-04-14T03:57:03.985Z,4.16
2019-04-14T03:58:03.534Z,4.22
2019-04-14T03:59:02.039Z,4.16
2019-04-14T04:00:03.065Z,4.14
2019-04-14T04:01:01.965Z,4.22
2019-04-14T04:02:03.112Z,4.16
2019-04-14T04:03:02.112Z,4.22
2019-04-14T04:04:02.956Z,4.20
2019-04-14T04:05:02.252Z,4.15
2019-04-14T04:06:01.740Z,4.23
2019-04-14T04:07:01.929Z,4.15
2019-04-14T04:08:02.746Z,4.20
2019-04-14T04:09:01.938Z,4.20
2019-04-14T04:10:03.016Z,4.23
2019-04-14T04:11:02.024Z,4.24
2019-04-14T04:12:03.026Z,4.18
2019-04-14T04:13:01.966Z,4.20
2019-04-14T04:14:01.667Z,4.15
2019-04-14T04:15:01.939Z,4.22
2019-04-14T04:16:02.871Z,4.20
2019-04-14T04:17:01.639Z,4.18
2019-04-14T04:18:02.678Z,4.18
2019-04-14T04:19:07.375Z,4.14
2019-04-14T04:20:02.675Z,4.16
2019-04-14T04:21:01.573Z,4.18
2019-04-14T04:22:02.119Z,4.22
2019-04-14T04:23:01.575Z,4.16
2019-04-14T04:24:02.647Z,4.20
2019-04-14T04:25:01.538Z,4.22
2019-04-14T04:26:01.873Z,4.16
2019-04-14T04:27:02.561Z,4.16
2019-04-14T04:28:01.650Z,4.23
2019-04-14T04:29:02.694Z,4.09
2019-04-14T04:30:01.854Z,4.15
2019-04-14T04:31:02.428Z,4.20
2019-04-14T04:32:01.482Z,4.14
2019-04-14T04:33:02.326Z,4.22
2019-04-14T04:34:01.440Z,4.16
2019-04-14T04:35:02.189Z,4.16
2019-04-14T04:36:01.413Z,4.16
2019-04-14T04:37:01.848Z,4.20
2019-04-14T04:38:01.397Z,4.16
2019-04-14T04:39:01.805Z,4.14
2019-04-14T04:40:01.374Z,4.15
2019-04-14T04:41:01.625Z,4.20
2019-04-14T04:42:02.574Z,4.24
2019-04-14T04:43:01.351Z,4.11
2019-04-14T04:44:01.347Z,4.12
2019-04-14T04:45:01.820Z,4.11
2019-04-14T04:46:02.628Z,4.08
2019-04-14T04:47:01.292Z,4.08
2019-04-14T04:48:02.426Z,4.14
2019-04-14T04:49:09.854Z,4.04
2019-04-14T04:50:02.472Z,3.97
2019-04-14T04:51:01.252Z,4.06
2019-04-14T04:52:01.817Z,4.00
2019-04-14T04:53:01.250Z,3.97
2019-04-14T04:54:01.692Z,4.08
2019-04-14T04:55:02.267Z,3.96
2019-04-14T04:56:01.518Z,4.06
2019-04-14T04:57:02.368Z,4.09
2019-04-14T04:58:01.425Z,3.94
2019-04-14T04:59:01.197Z,3.93
2019-04-14T05:00:01.159Z,4.00
2019-04-14T05:01:01.435Z,4.02
2019-04-14T05:02:01.127Z,4.04
2019-04-14T05:03:01.427Z,4.00
2019-04-14T05:04:01.104Z,4.00
2019-04-14T05:05:01.346Z,4.00
2019-04-14T05:06:01.087Z,4.00
2019-04-14T05:07:01.480Z,4.02
2019-04-14T05:08:02.199Z,3.94
2019-04-14T05:09:01.338Z,4.04
2019-04-14T05:10:02.546Z,3.94
2019-04-14T05:11:01.134Z,3.97
2019-04-14T05:12:02.255Z,4.00
2019-04-14T05:13:01.036Z,4.04
2019-04-14T05:14:02.013Z,4.04
2019-04-14T05:15:01.180Z,4.04
2019-04-14T05:16:02.106Z,4.02
2019-04-14T05:17:01.457Z,4.02
2019-04-14T05:18:00.974Z,4.08
2019-04-14T05:19:12.007Z,4.05
2019-04-14T05:20:03.058Z,4.08
2019-04-14T05:21:01.764Z,3.98
2019-04-14T05:22:00.930Z,4.06
2019-04-14T05:23:01.593Z,3.97
2019-04-14T05:24:00.930Z,4.04
2019-04-14T05:25:01.449Z,3.98
2019-04-14T05:26:00.861Z,4.16
2019-04-14T05:27:01.399Z,4.09
2019-04-14T05:28:00.878Z,4.08
2019-04-14T05:29:01.444Z,4.12
2019-04-14T05:30:00.817Z,4.16
2019-04-14T05:31:01.286Z,4.15
2019-04-14T05:32:00.795Z,4.16
2019-04-14T05:33:00.936Z,4.20
2019-04-14T05:34:00.787Z,4.26
2019-04-14T05:35:00.922Z,4.32
2019-04-14T05:36:01.969Z,4.22
2019-04-14T05:37:00.764Z,4.27
2019-04-14T05:38:01.790Z,4.33
2019-04-14T05:39:00.738Z,4.26
2019-04-14T05:40:01.619Z,4.32
2019-04-14T05:41:00.712Z,4.27
2019-04-14T05:42:09.407Z,4.30
2019-04-14T05:43:02.504Z,4.30
2019-04-14T05:44:02.887Z,4.36
2019-04-14T05:45:00.655Z,4.44
2019-04-14T05:46:01.303Z,4.40
2019-04-14T05:47:00.625Z,4.30
2019-04-14T05:48:01.095Z,4.30
2019-04-14T05:49:00.635Z,4.26
2019-04-14T05:50:00.972Z,4.32
2019-04-14T05:51:00.589Z,4.36
2019-04-14T05:52:01.299Z,4.41
2019-04-14T05:53:00.560Z,4.41
2019-04-14T05:54:01.138Z,4.34
2019-04-14T05:55:00.558Z,4.36
2019-04-14T05:56:01.454Z,4.33
2019-04-14T05:57:00.519Z,4.30
2019-04-14T05:58:01.428Z,4.33
2019-04-14T05:59:00.525Z,4.26
2019-04-14T06:00:01.661Z,4.34
2019-04-14T06:01:00.478Z,4.30
2019-04-14T06:02:00.468Z,4.29
2019-04-14T06:03:01.578Z,4.29
2019-04-14T06:04:00.459Z,4.16
2019-04-14T06:05:01.439Z,4.34
2019-04-14T06:06:00.417Z,4.18
2019-04-14T06:07:00.417Z,4.26
2019-04-14T06:08:00.395Z,4.16
2019-04-14T06:09:00.409Z,4.18
2019-04-14T06:10:00.371Z,4.18
2019-04-14T06:11:00.365Z,4.12
2019-04-14T06:12:00.356Z,4.09
2019-04-14T06:13:00.353Z,4.11
2019-04-14T06:14:00.365Z,4.06
2019-04-14T06:15:00.327Z,4.16
2019-04-14T06:16:00.349Z,4.15
2019-04-14T06:17:00.299Z,4.12
2019-04-14T06:18:00.297Z,4.11
2019-04-14T06:19:00.305Z,4.05
2019-04-14T06:20:00.278Z,4.04
2019-04-14T06:21:00.263Z,4.04
2019-04-14T06:22:00.244Z,4.09
2019-04-14T06:23:00.230Z,4.02
2019-04-14T06:24:00.230Z,4.09
2019-04-14T06:25:00.237Z,4.06
2019-04-14T06:26:00.221Z,3.98
2019-04-14T06:27:00.187Z,4.09
2019-04-14T06:28:00.175Z,4.05
2019-04-14T06:29:00.171Z,4.18
2019-04-14T06:30:00.184Z,4.16
2019-04-14T06:31:00.140Z,4.20
2019-04-14T06:32:00.140Z,4.11
2019-04-14T06:33:00.135Z,4.08
2019-04-14T06:34:00.117Z,4.15
2019-04-14T06:35:00.122Z,4.14
2019-04-14T06:36:00.114Z,4.22
2019-04-14T06:37:00.084Z,4.16
2019-04-14T06:38:00.072Z,4.20
2019-04-14T06:39:00.056Z,4.22
2019-04-14T06:40:00.064Z,4.16
2019-04-14T06:41:00.045Z,4.20
2019-04-14T06:42:00.028Z,4.20
2019-04-14T06:43:00.022Z,4.16
2019-04-14T06:44:00.010Z,4.22
2019-04-14T06:45:00.032Z,4.16
2019-04-14T06:45:59.982Z,4.18
2019-04-14T06:46:59.994Z,4.16
2019-04-14T06:47:59.999Z,4.18
2019-04-14T06:48:59.955Z,4.18
2019-04-14T06:49:59.982Z,4.23
2019-04-14T06:50:59.968Z,4.23
2019-04-14T06:51:59.941Z,4.22
2019-04-14T06:52:59.923Z,4.26
2019-04-14T06:53:59.904Z,4.18
2019-04-14T06:54:59.987Z,4.18
2019-04-14T06:55:59.919Z,4.20
2019-04-14T06:56:59.896Z,4.20
2019-04-14T06:57:59.866Z,4.30
2019-04-14T06:58:59.845Z,4.20
2019-04-14T06:59:59.866Z,4.26
2019-04-14T07:00:59.850Z,4.24
2019-04-14T07:02:01.893Z,4.29
2019-04-14T07:02:59.796Z,4.32
2019-04-14T07:03:59.780Z,4.32
2019-04-14T07:04:59.813Z,4.26
2019-04-14T07:06:00.215Z,4.32
2019-04-14T07:06:59.769Z,4.33
2019-04-14T07:07:59.745Z,4.29
2019-04-14T07:08:59.742Z,4.27
2019-04-14T07:09:59.723Z,4.23
2019-04-14T07:10:59.726Z,4.27
2019-04-14T07:11:59.718Z,4.22
2019-04-14T07:12:59.700Z,4.32
2019-04-14T07:13:59.678Z,4.29
2019-04-14T07:14:59.659Z,4.33
2019-04-14T07:15:59.663Z,4.37
2019-04-14T07:16:59.650Z,4.33
2019-04-14T07:17:59.632Z,4.32
2019-04-14T07:18:59.619Z,4.37
2019-04-14T07:20:02.111Z,4.32
2019-04-14T07:20:59.615Z,4.33
2019-04-14T07:21:59.597Z,4.33
2019-04-14T07:22:59.577Z,4.37
2019-04-14T07:23:59.593Z,4.37
2019-04-14T07:24:59.555Z,4.40
2019-04-14T07:25:59.565Z,4.41
2019-04-14T07:26:59.532Z,4.42
2019-04-14T07:27:59.551Z,4.44
2019-04-14T07:28:59.567Z,4.40
2019-04-14T07:29:59.513Z,4.44
2019-04-14T07:30:59.521Z,4.44
2019-04-14T07:31:59.484Z,4.45
2019-04-14T07:32:59.518Z,4.47
2019-04-14T07:33:59.498Z,4.44
2019-04-14T07:34:59.485Z,4.51
2019-04-14T07:35:59.469Z,4.50
2019-04-14T07:36:59.448Z,4.58
2019-04-14T07:37:59.408Z,4.51
2019-04-14T07:38:59.404Z,4.52
2019-04-14T07:39:59.452Z,4.55
2019-04-14T07:40:59.404Z,4.63
2019-04-14T07:41:59.371Z,4.63
2019-04-14T07:42:59.351Z,4.66
2019-04-14T07:43:59.355Z,4.67
2019-04-14T07:44:59.359Z,4.75
2019-04-14T07:45:59.345Z,4.59
2019-04-14T07:46:59.343Z,4.67
2019-04-14T07:47:59.303Z,4.67
2019-04-14T07:48:59.295Z,4.69
2019-04-14T07:49:59.298Z,4.73
2019-04-14T07:50:59.273Z,4.72
2019-04-14T07:51:59.320Z,4.88
2019-04-14T07:52:59.276Z,4.86
2019-04-14T07:53:59.235Z,4.73
2019-04-14T07:54:59.237Z,4.73
2019-04-14T07:55:59.212Z,4.78
2019-04-14T07:56:59.217Z,4.67
2019-04-14T07:57:59.214Z,4.73
2019-04-14T07:58:59.199Z,4.82
2019-04-14T07:59:59.171Z,4.73
2019-04-14T08:00:59.156Z,4.78
2019-04-14T08:01:59.166Z,4.72
2019-04-14T08:02:59.150Z,4.75
2019-04-14T08:03:59.149Z,4.77
2019-04-14T08:04:59.115Z,4.80
2019-04-14T08:05:59.109Z,4.84
2019-04-14T08:06:59.115Z,4.85
2019-04-14T08:07:59.092Z,4.85
2019-04-14T08:08:59.081Z,4.86
2019-04-14T08:09:59.094Z,4.99
2019-04-14T08:10:59.050Z,4.97
2019-04-14T08:11:59.054Z,4.96
2019-04-14T08:12:59.025Z,5.03
2019-04-14T08:13:59.018Z,4.99
2019-04-14T08:14:59.021Z,4.97
2019-04-14T08:15:59.016Z,4.96
2019-04-14T08:16:59.017Z,5.02
2019-04-14T08:17:59.031Z,5.04
2019-04-14T08:18:58.954Z,5.07
2019-04-14T08:19:58.951Z,5.04
2019-04-14T08:20:58.965Z,5.04
2019-04-14T08:21:58.962Z,5.07
2019-04-14T08:22:58.914Z,5.18
2019-04-14T08:23:58.918Z,5.21
2019-04-14T08:24:58.911Z,5.21
2019-04-14T08:25:58.909Z,5.24
2019-04-14T08:26:58.912Z,5.22
2019-04-14T08:27:58.857Z,5.28
2019-04-14T08:28:58.862Z,5.35
2019-04-14T08:29:58.838Z,5.36
2019-04-14T08:30:58.836Z,5.36
2019-04-14T08:31:58.821Z,5.46
2019-04-14T08:32:58.851Z,5.49
2019-04-14T08:33:58.790Z,5.49
2019-04-14T08:34:58.852Z,5.48
2019-04-14T08:35:58.768Z,5.45
2019-04-14T08:36:58.757Z,5.48
2019-04-14T08:37:58.773Z,5.60
2019-04-14T08:38:58.747Z,5.58
2019-04-14T08:39:58.719Z,5.63
2019-04-14T08:40:58.751Z,5.61
2019-04-14T08:41:58.701Z,5.63
2019-04-14T08:42:58.705Z,5.61
2019-04-14T08:43:58.698Z,5.67
2019-04-14T08:44:58.665Z,5.61
2019-04-14T08:45:58.690Z,5.71
2019-04-14T08:46:58.648Z,5.71
2019-04-14T08:47:58.666Z,5.74
2019-04-14T08:48:58.627Z,5.75
2019-04-14T08:49:58.637Z,5.72
2019-04-14T08:50:58.632Z,5.75
2019-04-14T08:51:58.595Z,5.81
2019-04-14T08:52:58.603Z,5.89
2019-04-14T08:53:58.581Z,5.79
2019-04-14T08:54:58.579Z,5.82
2019-04-14T08:55:58.585Z,5.86
2019-04-14T08:56:58.534Z,5.93
2019-04-14T08:57:58.582Z,5.97
2019-04-14T08:58:58.523Z,6.08
2019-04-14T08:59:58.515Z,6.11
2019-04-14T09:00:58.516Z,6.03
2019-04-14T09:01:58.526Z,6.11
2019-04-14T09:02:58.516Z,6.12
2019-04-14T09:03:58.463Z,6.18
2019-04-14T09:04:58.467Z,6.15
2019-04-14T09:05:58.444Z,6.17
2019-04-14T09:06:58.437Z,6.21
2019-04-14T09:07:58.450Z,6.18
2019-04-14T09:08:58.399Z,6.17
2019-04-14T09:09:58.411Z,6.22
2019-04-14T09:10:58.418Z,6.36
2019-04-14T09:11:58.376Z,6.33
2019-04-14T09:12:59.146Z,6.30
2019-04-14T09:13:58.442Z,6.31
2019-04-14T09:14:58.342Z,6.19
2019-04-14T09:15:58.341Z,6.21
2019-04-14T09:16:58.332Z,6.18
2019-04-14T09:17:58.333Z,6.14
2019-04-14T09:19:07.393Z,6.21
2019-04-14T09:19:59.308Z,6.28
2019-04-14T09:20:58.275Z,6.37
2019-04-14T09:21:58.266Z,6.43
2019-04-14T09:22:58.253Z,6.43
2019-04-14T09:23:58.273Z,6.49
2019-04-14T09:24:58.247Z,6.59
2019-04-14T09:25:58.217Z,6.56
2019-04-14T09:26:58.214Z,6.51
2019-04-14T09:27:58.195Z,6.64
2019-04-14T09:28:58.230Z,6.66
2019-04-14T09:29:58.187Z,6.74
2019-04-14T09:30:58.192Z,6.67
2019-04-14T09:31:58.151Z,6.62
2019-04-14T09:32:58.142Z,6.71
2019-04-14T09:33:58.162Z,6.70
2019-04-14T09:34:58.121Z,6.80
2019-04-14T09:35:58.161Z,6.71
2019-04-14T09:36:58.131Z,6.67
2019-04-14T09:37:58.089Z,6.69
2019-04-14T09:38:58.099Z,6.70
2019-04-14T09:39:58.069Z,6.70
2019-04-14T09:40:58.065Z,6.64
2019-04-14T09:41:58.060Z,6.67
2019-04-14T09:42:58.023Z,6.61
2019-04-14T09:43:58.078Z,6.67
2019-04-14T09:44:58.033Z,6.76
2019-04-14T09:45:58.005Z,6.71
2019-04-14T09:46:58.014Z,6.69
2019-04-14T09:47:58.035Z,6.71
2019-04-14T09:48:57.991Z,6.71
2019-04-14T09:49:57.959Z,6.66
2019-04-14T09:51:04.682Z,6.69
2019-04-14T09:51:58.941Z,6.69
2019-04-14T09:52:57.929Z,6.67
2019-04-14T09:53:58.049Z,6.69
2019-04-14T09:54:57.894Z,6.67
2019-04-14T09:55:57.889Z,6.71
2019-04-14T09:56:57.879Z,6.62
2019-04-14T09:57:57.866Z,6.73
2019-04-14T09:58:57.875Z,6.71
2019-04-14T09:59:57.840Z,6.76
2019-04-14T10:00:57.878Z,6.71
2019-04-14T10:01:57.847Z,6.70
2019-04-14T10:02:57.840Z,6.73
2019-04-14T10:03:57.812Z,6.67
2019-04-14T10:04:57.799Z,6.64
2019-04-14T10:05:57.776Z,6.61
2019-04-14T10:06:57.769Z,6.66
2019-04-14T10:07:57.767Z,6.69
2019-04-14T10:08:57.779Z,6.67
2019-04-14T10:09:57.741Z,6.67
2019-04-14T10:10:57.752Z,6.62
2019-04-14T10:11:57.709Z,6.73
2019-04-14T10:12:57.694Z,6.79
2019-04-14T10:13:57.711Z,6.71
2019-04-14T10:14:57.757Z,6.71
2019-04-14T10:15:57.684Z,6.69
2019-04-14T10:16:57.663Z,6.74
2019-04-14T10:17:57.682Z,6.74
2019-04-14T10:18:57.628Z,6.71
2019-04-14T10:19:57.648Z,6.70
2019-04-14T10:20:57.615Z,6.70
2019-04-14T10:21:57.616Z,6.71
2019-04-14T10:22:57.582Z,6.73
2019-04-14T10:23:57.581Z,6.76
2019-04-14T10:24:57.592Z,6.62
2019-04-14T10:25:57.560Z,6.59
2019-04-14T10:26:57.545Z,6.66
2019-04-14T10:27:57.541Z,6.71
2019-04-14T10:28:57.522Z,6.71
2019-04-14T10:29:57.534Z,6.66
2019-04-14T10:30:57.516Z,6.67
2019-04-14T10:31:57.489Z,6.67
2019-04-14T10:32:57.489Z,6.71
2019-04-14T10:33:57.458Z,6.67
2019-04-14T10:34:57.498Z,6.76
2019-04-14T10:35:57.440Z,6.76
2019-04-14T10:36:57.440Z,6.67
2019-04-14T10:37:57.424Z,6.71
2019-04-14T10:38:57.433Z,6.70
2019-04-14T10:39:57.426Z,6.84
2019-04-14T10:40:57.384Z,6.66
2019-04-14T10:41:57.375Z,6.73
2019-04-14T10:42:57.418Z,6.70
2019-04-14T10:43:57.359Z,6.64
2019-04-14T10:44:57.371Z,6.69
2019-04-14T10:45:57.340Z,6.62
2019-04-14T10:46:57.334Z,6.70
2019-04-14T10:47:57.326Z,6.77
2019-04-14T10:48:57.294Z,6.76
2019-04-14T10:49:57.314Z,6.71
2019-04-14T10:50:57.282Z,6.84
2019-04-14T10:51:57.261Z,6.67
2019-04-14T10:52:57.257Z,6.74
2019-04-14T10:53:57.270Z,6.77
2019-04-14T10:54:57.242Z,6.77
2019-04-14T10:55:57.286Z,6.76
2019-04-14T10:56:57.225Z,6.74
2019-04-14T10:57:57.213Z,6.80
2019-04-14T10:58:57.195Z,6.71
2019-04-14T10:59:57.178Z,6.79
2019-04-14T11:00:57.211Z,6.76
2019-04-14T11:01:57.182Z,6.73
2019-04-14T11:02:57.157Z,6.79
2019-04-14T11:03:57.144Z,6.70
2019-04-14T11:04:57.140Z,6.81
2019-04-14T11:05:57.177Z,6.92
2019-04-14T11:06:57.108Z,6.85
2019-04-14T11:07:57.231Z,6.89
2019-04-14T11:08:57.105Z,6.92
2019-04-14T11:09:57.080Z,6.98
2019-04-14T11:10:57.101Z,6.95
2019-04-14T11:11:57.047Z,7.03
2019-04-14T11:12:57.049Z,7.02
2019-04-14T11:13:57.050Z,6.95
2019-04-14T11:14:57.021Z,7.05
2019-04-14T11:15:57.058Z,7.07
2019-04-14T11:16:56.986Z,7.16
2019-04-14T11:17:56.985Z,7.16
2019-04-14T11:18:56.979Z,7.07
2019-04-14T11:19:56.958Z,7.24
2019-04-14T11:20:56.976Z,7.24
2019-04-14T11:21:56.954Z,7.23
2019-04-14T11:23:03.272Z,7.15
2019-04-14T11:23:57.940Z,7.34
2019-04-14T11:24:56.919Z,7.32
2019-04-14T11:25:56.932Z,7.37
2019-04-14T11:26:56.887Z,7.43
2019-04-14T11:27:56.869Z,7.42
2019-04-14T11:29:58.036Z,7.58
2019-04-14T11:30:56.857Z,7.49
2019-04-14T11:32:57.989Z,7.61
2019-04-14T11:33:56.800Z,7.58
2019-04-14T11:34:56.793Z,7.60
2019-04-14T11:35:56.797Z,7.71
2019-04-14T11:37:57.964Z,7.72
2019-04-14T11:38:56.914Z,7.69
2019-04-14T11:39:56.919Z,7.71
2019-04-14T11:40:56.907Z,7.82
2019-04-14T11:41:56.946Z,7.75
2019-04-14T11:42:56.949Z,7.85
2019-04-14T11:43:56.736Z,7.82
2019-04-14T11:44:56.702Z,7.86
2019-04-14T11:45:56.669Z,7.92
2019-04-14T11:46:56.819Z,7.90
2019-04-14T11:47:56.663Z,7.87
2019-04-14T11:48:56.673Z,7.87
2019-04-14T11:49:56.642Z,7.95
2019-04-14T11:50:56.612Z,7.98
2019-04-14T11:51:56.604Z,7.97
2019-04-14T11:52:56.592Z,8.02
2019-04-14T11:53:56.618Z,8.08
2019-04-14T11:54:56.575Z,8.11
2019-04-14T11:55:56.554Z,8.30
2019-04-14T11:56:56.599Z,8.36
2019-04-14T11:57:56.539Z,8.44
2019-04-14T11:58:56.538Z,8.55
2019-04-14T11:59:56.562Z,8.58
2019-04-14T12:00:56.501Z,8.63
2019-04-14T12:01:56.547Z,8.63
2019-04-14T12:02:56.483Z,8.62
2019-04-14T12:03:56.516Z,8.56
2019-04-14T12:04:56.466Z,8.53
2019-04-14T12:05:56.470Z,8.63
2019-04-14T12:06:56.463Z,8.62
2019-04-14T12:07:56.423Z,8.74
2019-04-14T12:08:56.410Z,8.74
2019-04-14T12:09:56.407Z,8.74
2019-04-14T12:10:56.418Z,8.79
2019-04-14T12:11:56.453Z,8.79
2019-04-14T12:12:56.374Z,8.68
2019-04-14T12:13:56.351Z,8.74
2019-04-14T12:14:56.344Z,8.76
2019-04-14T12:15:56.343Z,8.79
2019-04-14T12:16:56.361Z,8.89
2019-04-14T12:17:56.325Z,8.87
2019-04-14T12:18:56.346Z,8.92
2019-04-14T12:19:56.297Z,9.01
2019-04-14T12:20:56.275Z,9.13
2019-04-14T12:22:07.662Z,9.11
2019-04-14T12:22:57.274Z,9.20
2019-04-14T12:23:56.262Z,9.28
2019-04-14T12:24:56.268Z,9.29
2019-04-14T12:26:05.063Z,9.31
2019-04-14T12:26:57.255Z,9.40
2019-04-14T12:27:56.220Z,9.48
2019-04-14T12:28:56.228Z,9.48
2019-04-14T12:29:56.739Z,9.50
2019-04-14T12:30:57.501Z,9.51
2019-04-14T12:31:57.336Z,9.57
2019-04-14T12:32:56.145Z,9.64
2019-04-14T12:33:56.676Z,9.54
2019-04-14T12:34:56.195Z,9.53
2019-04-14T12:35:56.139Z,9.58
2019-04-14T12:36:56.143Z,9.47
2019-04-14T12:37:56.089Z,9.50
2019-04-14T12:38:56.086Z,9.40
2019-04-14T12:39:56.089Z,9.51
2019-04-14T12:40:57.813Z,9.47
2019-04-14T12:41:56.075Z,9.57
2019-04-14T12:42:56.044Z,9.54
2019-04-14T12:43:56.013Z,9.71
2019-04-14T12:44:56.020Z,9.75
2019-04-14T12:45:56.003Z,9.76
2019-04-14T12:46:55.999Z,9.78
2019-04-14T12:47:56.074Z,9.79
2019-04-14T12:48:55.970Z,9.96
2019-04-14T12:49:55.966Z,10.07
2019-04-14T12:50:55.957Z,10.08
2019-04-14T12:51:55.960Z,10.05
2019-04-14T12:52:55.954Z,10.11
2019-04-14T12:53:55.909Z,10.05
2019-04-14T12:54:55.908Z,9.91
2019-04-14T12:55:55.881Z,9.75
2019-04-14T12:56:55.889Z,9.72
2019-04-14T12:57:56.010Z,9.69
2019-04-14T12:58:55.877Z,9.69
2019-04-14T12:59:55.849Z,9.66
2019-04-14T13:00:55.845Z,9.68
2019-04-14T13:01:55.826Z,9.83
2019-04-14T13:02:55.872Z,9.89
2019-04-14T13:03:55.811Z,10.05
2019-04-14T13:04:55.785Z,10.22
2019-04-14T13:05:55.775Z,10.44
2019-04-14T13:06:55.761Z,10.59
2019-04-14T13:07:55.771Z,10.79
2019-04-14T13:08:55.812Z,10.91
2019-04-14T13:09:55.758Z,11.06
2019-04-14T13:10:55.719Z,11.22
2019-04-14T13:11:55.803Z,11.37
2019-04-14T13:12:55.728Z,11.46
2019-04-14T13:13:55.709Z,11.32
2019-04-14T13:14:55.701Z,11.35
2019-04-14T13:15:55.687Z,11.46
2019-04-14T13:16:55.666Z,11.51
2019-04-14T13:17:55.706Z,11.52
2019-04-14T13:18:55.708Z,11.60
2019-04-14T13:19:55.641Z,11.64
2019-04-14T13:20:55.626Z,11.79
2019-04-14T13:21:55.595Z,11.85
2019-04-14T13:22:55.583Z,12.09
2019-04-14T13:23:55.604Z,12.17
2019-04-14T13:24:55.585Z,12.39
2019-04-14T13:25:55.561Z,12.38
2019-04-14T13:26:55.574Z,12.32
2019-04-14T13:27:55.536Z,12.34
2019-04-14T13:28:55.635Z,12.29
2019-04-14T13:29:55.522Z,12.29
2019-04-14T13:30:55.523Z,12.24
2019-04-14T13:31:55.502Z,12.42
2019-04-14T13:32:55.508Z,12.24
2019-04-14T13:33:55.509Z,12.29
2019-04-14T13:34:55.455Z,12.24
2019-04-14T13:35:55.454Z,12.21
2019-04-14T13:36:55.442Z,12.28
2019-04-14T13:37:55.432Z,12.85
2019-04-14T13:38:55.442Z,12.95
2019-04-14T13:39:55.409Z,13.39
2019-04-14T13:40:55.389Z,13.32
2019-04-14T13:41:55.387Z,13.42
2019-04-14T13:42:55.370Z,13.55
2019-04-14T13:43:55.397Z,13.85
2019-04-14T13:44:55.391Z,14.02